CMA CGM Volga — 5BJR2 — position and weather

sailwx.info

Track history (hours):
 
Tides and Currents Weather Stations Pressure Air Temp Water Temp Dewpoint Dewpoint Depression Visibility Wind Speed Wind Dir Waves Ship Positions

CMA CGM Volga

Last reported at 2017-May-27 07:52 UTC. Time now 2017-May-27 08:14 UTC.
Position N 60°11' E 026°20'.

Length 184 m; draft 7 m.

Type: Cargo ship. MMSI: 212456000.

Date/timePositionNaut miles runAvg speedWind from/ knotsBaromVisibWave heightAir tempDewpointWater temp
2017-May-27 07:52N 60°11' E 026°20'0 0.0
2017-May-27 07:28N 60°11' E 026°20'0 0.0
2017-May-27 06:37N 60°11' E 026°20'0 0.0
2017-May-27 06:13N 60°11' E 026°20'0 0.0
2017-May-27 05:55N 60°11' E 026°20'0 0.0
2017-May-27 05:25N 60°11' E 026°20'0 0.0
2017-May-27 04:58N 60°11' E 026°20'0 0.0
2017-May-27 04:28N 60°11' E 026°20'0 0.0
2017-May-27 03:49N 60°11' E 026°20'0 0.0
2017-May-27 03:25N 60°11' E 026°20'0 0.0
2017-May-27 02:58N 60°11' E 026°20'0 0.0
2017-May-27 02:28N 60°11' E 026°20'0 0.0
2017-May-27 01:58N 60°11' E 026°20'0 0.1
2017-May-27 01:25N 60°11' E 026°20'0 0.1
2017-May-27 00:55N 60°11' E 026°20'0 0.0
2017-May-27 00:28N 60°11' E 026°20'0 0.0
2017-May-26 23:55N 60°11' E 026°20'0 0.0
2017-May-26 23:28N 60°11' E 026°20'0 0.0
2017-May-26 22:52N 60°11' E 026°20'0 0.1
2017-May-26 22:28N 60°11' E 026°20'0 0.0
2017-May-26 21:55N 60°11' E 026°20'0 0.0
2017-May-26 21:19N 60°11' E 026°20'0 0.0
2017-May-26 20:58N 60°11' E 026°20'0 0.0
2017-May-26 20:22N 60°11' E 026°20'0 0.0
2017-May-26 19:55N 60°11' E 026°20'0 0.0
2017-May-26 19:19N 60°11' E 026°20'0 0.0
2017-May-26 14:55N 60°11' E 026°20'0 0.0
2017-May-26 13:49N 60°11' E 026°20'0 0.0
2017-May-26 13:25N 60°11' E 026°20'1 1.9
2017-May-26 13:00N 60°11' E 026°21'5 9.3
2017-May-26 12:27N 60°06' E 026°17'1614.2
2017-May-26 11:20N 59°54' E 025°56'1014.3
2017-May-26 10:37N 59°52' E 025°36'33114.6
2017-May-25 11:56N 56°22' E 017°30'615.0
2017-May-25 11:30N 56°19' E 017°21'1315.1
2017-May-25 10:40N 56°11' E 017°03'715.0
2017-May-25 10:14N 56°07' E 016°54'315.0
2017-May-25 10:00N 56°05' E 016°49'915.1
2017-May-25 09:25N 55°60' E 016°35'615.6
2017-May-25 09:00N 55°56' E 016°26'816.5
2017-May-25 08:30N 55°53' E 016°13'816.4
2017-May-25 08:00N 55°49' E 015°60'816.4
2017-May-25 07:30N 55°45' E 015°47'816.3
2017-May-25 07:00N 55°41' E 015°35'816.3
2017-May-25 06:30N 55°36' E 015°22'816.2
2017-May-25 06:00N 55°33' E 015°10'816.6
2017-May-25 05:30N 55°29' E 014°56'815.8
2017-May-25 05:00N 55°25' E 014°45'1015.4
2017-May-25 04:23N 55°18' E 014°32'615.5
2017-May-25 03:59N 55°13' E 014°25'815.5
2017-May-25 03:27N 55°07' E 014°16'715.4
2017-May-25 03:00N 55°02' E 014°08'916.0
2017-May-25 02:25N 54°58' E 013°53'816.5
2017-May-25 01:55N 54°55' E 013°39'1815.9
2017-May-25 00:47N 54°49' E 013°10'416.0
2017-May-25 00:30N 54°48' E 013°02'815.7
2017-May-25 00:00N 54°45' E 012°50'1615.9
2017-May-24 23:02N 54°37' E 012°27'015.9
2017-May-24 23:00N 54°37' E 012°26'815.7
2017-May-24 22:30N 54°31' E 012°17'815.5
2017-May-24 22:00N 54°25' E 012°09'3516.8
2017-May-24 19:55N 54°35' E 011°11'717.0
2017-May-24 19:30N 54°39' E 011°01'815.2
2017-May-24 19:00N 54°44' E 010°52'816.9
2017-May-24 18:30N 54°52' E 010°53'816.4
2017-May-24 18:00N 54°59' E 011°00'917.7
2017-May-24 17:29N 55°09' E 011°03'8415.1
2017-May-24 11:52N 56°31' E 011°37'616.1
2017-May-24 11:28N 56°36' E 011°43'816.2
2017-May-24 10:58N 56°44' E 011°50'1115.7
2017-May-24 10:15N 56°54' E 011°45'1416.1
2017-May-24 09:22N 57°08' E 011°35'916.8
2017-May-24 08:49N 57°16' E 011°29'617.2
2017-May-24 08:29N 57°22' E 011°26'816.4
2017-May-24 08:00N 57°29' E 011°19'816.0
2017-May-24 07:30N 57°35' E 011°09'816.1
2017-May-24 07:00N 57°41' E 010°58'816.1
2017-May-24 06:30N 57°46' E 010°47'916.6
2017-May-24 05:59N 57°48' E 010°32'817.2
2017-May-24 05:30N 57°47' E 010°16'1116.9
2017-May-24 04:53N 57°45' E 009°56'916.8
2017-May-24 04:21N 57°43' E 009°40'2116.9
2017-May-24 03:05N 57°33' E 009°05'11619.8
2017-May-23 21:14N 55°49' E 007°30'28 9.0
2017-May-23 18:05N 55°21' E 007°26'116.0
2017-May-23 18:00N 55°20' E 007°26'815.8
2017-May-23 17:30N 55°12' E 007°27'815.5
2017-May-23 17:00N 55°04' E 007°28'815.4
2017-May-23 16:30N 54°57' E 007°28'815.3
2017-May-23 16:01N 54°49' E 007°28'815.6
2017-May-23 15:30N 54°41' E 007°28'1416.0
2017-May-23 14:37N 54°27' E 007°29'4314.3
2017-May-23 11:37N 53°48' E 008°01'716.3
2017-May-23 11:11N 53°41' E 008°05'7 1.2
2017-May-23 05:39N 53°35' E 008°09'0 0.0
2017-May-23 05:27N 53°35' E 008°09'0 0.0
2017-May-23 04:09N 53°35' E 008°09'0 0.0
2017-May-23 03:57N 53°35' E 008°09'0 0.0
2017-May-23 03:03N 53°35' E 008°09'0 0.0
2017-May-23 01:33N 53°35' E 008°09'0 0.0
2017-May-23 01:21N 53°35' E 008°09'0 0.0
2017-May-22 19:43N 53°35' E 008°09'0 1.0
2017-May-22 19:29N 53°35' E 008°10'4 8.7
2017-May-22 19:00N 53°39' E 008°07'613.1
2017-May-22 18:30N 53°45' E 008°03'5014.9
2017-May-22 15:09N 54°30' E 007°24'318.1
2017-May-22 15:00N 54°33' E 007°24'1818.1
2017-May-22 14:00N 54°50' E 007°21'917.9
2017-May-22 13:30N 54°59' E 007°20'917.7
2017-May-22 13:00N 55°08' E 007°19'917.8
2017-May-22 12:30N 55°17' E 007°17'917.7
2017-May-22 12:00N 55°26' E 007°16'917.9
2017-May-22 11:30N 55°35' E 007°15'917.9
2017-May-22 11:01N 55°43' E 007°14'918.2
2017-May-22 10:30N 55°53' E 007°12'14 5.5
2017-May-22 07:58N 56°07' E 007°08'613.3
2017-May-22 07:30N 56°01' E 007°03'916.1
2017-May-22 06:58N 55°54' E 006°55'716.1
2017-May-22 06:30N 55°47' E 006°49'1016.0
2017-May-22 05:53N 55°38' E 006°41'616.0
2017-May-22 05:30N 55°33' E 006°35'816.1
2017-May-22 04:58N 55°26' E 006°28'13716.8
2017-May-21 20:48N 53°24' E 004°40'516.5
2017-May-21 20:30N 53°19' E 004°37'816.8
2017-May-21 20:00N 53°11' E 004°31'916.6
2017-May-21 19:29N 53°04' E 004°25'816.4
2017-May-21 19:00N 52°57' E 004°19'816.5
2017-May-21 18:30N 52°49' E 004°12'816.4
2017-May-21 18:00N 52°42' E 004°06'816.3
2017-May-21 17:30N 52°35' E 003°60'816.2
2017-May-21 17:00N 52°28' E 003°54'816.1
2017-May-21 16:30N 52°20' E 003°52'816.4
2017-May-21 16:00N 52°12' E 003°53'815.3
2017-May-21 15:30N 52°04' E 003°55'5 9.3
2017-May-21 15:00N 52°01' E 003°60'3 3.1
2017-May-21 13:56N 51°57' E 004°02'0 0.0
2017-May-21 13:22N 51°57' E 004°02'0 0.0
2017-May-21 12:59N 51°57' E 004°02'0 0.0
2017-May-21 12:29N 51°57' E 004°02'0 0.0
2017-May-21 11:59N 51°57' E 004°02'0 0.0
2017-May-21 11:26N 51°57' E 004°02'0 0.0
2017-May-21 10:59N 51°57' E 004°02'0 0.0
2017-May-21 10:29N 51°57' E 004°02'0 0.0
2017-May-21 09:50N 51°57' E 004°02'0 0.0
2017-May-21 09:25N 51°57' E 004°02'0 0.0
2017-May-21 08:55N 51°57' E 004°02'0 0.0
2017-May-21 08:20N 51°57' E 004°02'0 0.0
2017-May-21 07:47N 51°57' E 004°02'0 0.0
2017-May-21 07:29N 51°57' E 004°02'0 0.0
2017-May-21 06:32N 51°57' E 004°02'0 0.0
2017-May-21 06:26N 51°57' E 004°02'0 0.0
2017-May-21 05:56N 51°57' E 004°02'0 0.0
2017-May-21 05:20N 51°57' E 004°02'0 0.0
2017-May-21 04:59N 51°57' E 004°02'0 0.0
2017-May-21 04:23N 51°57' E 004°02'0 0.0
2017-May-21 03:59N 51°57' E 004°02'0 0.0
2017-May-21 03:26N 51°57' E 004°02'0 0.0
2017-May-21 02:59N 51°57' E 004°02'0 0.0
2017-May-21 02:29N 51°57' E 004°02'1 2.3
2017-May-21 02:00N 51°58' E 004°04'2 4.6
2017-May-21 01:30N 51°58' E 004°00'0 0.3
2017-May-21 00:33N 51°57' E 004°00'0 0.0
2017-May-21 00:18N 51°57' E 004°00'0 0.0
2017-May-21 00:00N 51°57' E 004°00'0 0.0
2017-May-20 23:30N 51°57' E 004°00'0 0.0
2017-May-20 22:48N 51°57' E 004°00'0 0.0
2017-May-20 22:27N 51°57' E 004°00'0 0.0
2017-May-20 21:42N 51°57' E 004°00'0 0.0
2017-May-20 20:39N 51°57' E 004°00'0 0.0
2017-May-20 20:21N 51°57' E 004°00'0 0.0
2017-May-20 19:45N 51°57' E 004°00'0 0.0
2017-May-20 19:27N 51°57' E 004°00'0 0.0
2017-May-20 19:00N 51°57' E 004°00'0 0.0
2017-May-20 18:30N 51°57' E 004°00'0 0.0
2017-May-20 17:57N 51°57' E 004°00'0 0.0
2017-May-20 17:27N 51°57' E 004°00'0 0.0
2017-May-20 16:57N 51°57' E 004°00'0 0.0
2017-May-20 16:27N 51°57' E 004°00'0 0.0
2017-May-20 15:27N 51°57' E 004°00'0 0.0
2017-May-20 15:00N 51°57' E 004°00'0 0.0
2017-May-20 14:00N 51°57' E 004°00'0 0.0
2017-May-20 13:24N 51°57' E 004°00'0 0.0
2017-May-20 13:00N 51°57' E 004°00'0 0.0
2017-May-20 12:18N 51°57' E 004°00'0 0.0
2017-May-20 12:00N 51°57' E 004°00'0 0.0
2017-May-20 11:30N 51°57' E 004°00'0 0.0
2017-May-20 10:57N 51°57' E 004°00'0 0.0
2017-May-20 10:30N 51°57' E 004°00'0 0.0
2017-May-20 09:48N 51°57' E 004°00'0 0.0
2017-May-20 08:21N 51°57' E 004°00'0 0.0
2017-May-20 07:36N 51°57' E 004°00'0 0.0
2017-May-20 07:24N 51°57' E 004°00'0 0.0
2017-May-20 06:51N 51°57' E 004°00'0 0.0
2017-May-20 06:24N 51°57' E 004°00'0 0.0
2017-May-20 06:01N 51°57' E 004°00'0 0.0
2017-May-20 05:31N 51°57' E 004°00'0 0.0
2017-May-20 05:00N 51°57' E 004°00'0 0.0
2017-May-20 04:31N 51°57' E 004°00'1 1.9
2017-May-20 04:00N 51°58' E 003°60'3 6.3
2017-May-20 03:30N 51°58' E 004°05'4 7.8
2017-May-20 03:00N 51°60' E 003°60'712.7
2017-May-20 02:29N 52°02' E 003°49'511.4
2017-May-20 02:00N 52°07' E 003°46'715.0
2017-May-20 01:30N 52°14' E 003°46'814.9
2017-May-20 00:59N 52°22' E 003°48'815.6
2017-May-20 00:29N 52°29' E 003°51'816.2
2017-May-20 00:00N 52°37' E 003°53'816.6
2017-May-19 23:30N 52°45' E 003°56'916.3
2017-May-19 22:56N 52°54' E 003°59'815.6
2017-May-19 22:25N 53°00' E 004°08'35116.0
2017-May-19 00:26N 57°49' E 010°00'716.7
2017-May-19 00:00N 57°49' E 010°14'816.5
2017-May-18 23:30N 57°49' E 010°29'815.8
2017-May-18 23:00N 57°48' E 010°44'816.0
2017-May-18 22:30N 57°44' E 010°56'917.2
2017-May-18 22:00N 57°37' E 011°07'917.3
2017-May-18 21:30N 57°31' E 011°19'916.9
2017-May-18 20:59N 57°25' E 011°29'817.6
2017-May-18 20:30N 57°17' E 011°34'1117.3
2017-May-18 19:52N 57°06' E 011°41'917.5
2017-May-18 19:19N 56°57' E 011°47'11115.8
2017-May-18 12:18N 55°09' E 011°03'717.3
2017-May-18 11:53N 55°02' E 011°02'616.3
2017-May-18 11:30N 54°56' E 010°57'816.4
2017-May-18 11:00N 54°49' E 010°52'815.4
2017-May-18 10:30N 54°41' E 010°56'918.0
2017-May-18 10:00N 54°37' E 011°09'1019.1
2017-May-18 09:30N 54°32' E 011°24'919.0
2017-May-18 09:01N 54°28' E 011°39'918.2
2017-May-18 08:31N 54°26' E 011°54'918.2
2017-May-18 08:00N 54°27' E 012°10'4617.1
2017-May-18 05:19N 54°53' E 013°14'718.3
2017-May-18 04:58N 54°56' E 013°25'918.6
2017-May-18 04:30N 54°59' E 013°39'1018.3
2017-May-18 03:57N 55°03' E 013°55'818.2
2017-May-18 03:30N 55°07' E 014°08'917.9
2017-May-18 03:00N 55°13' E 014°18'918.3
2017-May-18 02:29N 55°21' E 014°28'1118.4
2017-May-18 01:54N 55°29' E 014°42'818.0
2017-May-18 01:28N 55°32' E 014°54'818.2
2017-May-18 01:01N 55°36' E 015°07'918.4
2017-May-18 00:30N 55°41' E 015°21'918.6
2017-May-18 00:00N 55°45' E 015°35'918.4
2017-May-17 23:31N 55°50' E 015°49'918.2
2017-May-17 23:01N 55°54' E 016°03'918.3
2017-May-17 22:31N 55°59' E 016°18'918.3
2017-May-17 22:00N 56°03' E 016°32'918.1
2017-May-17 21:31N 56°08' E 016°45'918.2
2017-May-17 21:00N 56°14' E 016°59'918.2
2017-May-17 20:30N 56°20' E 017°12'  
Track history (hours):
 
Tides and Currents Weather Stations Pressure Air Temp Water Temp Dewpoint Dewpoint Depression Visibility Wind Speed Wind Dir Waves Ship Positions

CMA CGM Volga

Last reported at 2017-May-27 07:52 UTC. Time now 2017-May-27 08:14 UTC.
Position N 60°11' E 026°20'.

Length 184 m; draft 7 m.

Type: Cargo ship. MMSI: 212456000.

Date/timePositionNaut miles runAvg speedWind from/ knotsBaromVisibWave heightAir tempDewpointWater temp
2017-May-27 07:52N 60°11' E 026°20'0 0.0
2017-May-27 07:28N 60°11' E 026°20'0 0.0
2017-May-27 06:37N 60°11' E 026°20'0 0.0
2017-May-27 06:13N 60°11' E 026°20'0 0.0
2017-May-27 05:55N 60°11' E 026°20'0 0.0
2017-May-27 05:25N 60°11' E 026°20'0 0.0
2017-May-27 04:58N 60°11' E 026°20'0 0.0
2017-May-27 04:28N 60°11' E 026°20'0 0.0
2017-May-27 03:49N 60°11' E 026°20'0 0.0
2017-May-27 03:25N 60°11' E 026°20'0 0.0
2017-May-27 02:58N 60°11' E 026°20'0 0.0
2017-May-27 02:28N 60°11' E 026°20'0 0.0
2017-May-27 01:58N 60°11' E 026°20'0 0.1
2017-May-27 01:25N 60°11' E 026°20'0 0.1
2017-May-27 00:55N 60°11' E 026°20'0 0.0
2017-May-27 00:28N 60°11' E 026°20'0 0.0
2017-May-26 23:55N 60°11' E 026°20'0 0.0
2017-May-26 23:28N 60°11' E 026°20'0 0.0
2017-May-26 22:52N 60°11' E 026°20'0 0.1
2017-May-26 22:28N 60°11' E 026°20'0 0.0
2017-May-26 21:55N 60°11' E 026°20'0 0.0
2017-May-26 21:19N 60°11' E 026°20'0 0.0
2017-May-26 20:58N 60°11' E 026°20'0 0.0
2017-May-26 20:22N 60°11' E 026°20'0 0.0
2017-May-26 19:55N 60°11' E 026°20'0 0.0
2017-May-26 19:19N 60°11' E 026°20'0 0.0
2017-May-26 14:55N 60°11' E 026°20'0 0.0
2017-May-26 13:49N 60°11' E 026°20'0 0.0
2017-May-26 13:25N 60°11' E 026°20'1 1.9
2017-May-26 13:00N 60°11' E 026°21'5 9.3
2017-May-26 12:27N 60°06' E 026°17'1614.2
2017-May-26 11:20N 59°54' E 025°56'1014.3
2017-May-26 10:37N 59°52' E 025°36'33114.6
2017-May-25 11:56N 56°22' E 017°30'615.0
2017-May-25 11:30N 56°19' E 017°21'1315.1
2017-May-25 10:40N 56°11' E 017°03'715.0
2017-May-25 10:14N 56°07' E 016°54'315.0
2017-May-25 10:00N 56°05' E 016°49'915.1
2017-May-25 09:25N 55°60' E 016°35'615.6
2017-May-25 09:00N 55°56' E 016°26'816.5
2017-May-25 08:30N 55°53' E 016°13'816.4
2017-May-25 08:00N 55°49' E 015°60'816.4
2017-May-25 07:30N 55°45' E 015°47'816.3
2017-May-25 07:00N 55°41' E 015°35'816.3
2017-May-25 06:30N 55°36' E 015°22'816.2
2017-May-25 06:00N 55°33' E 015°10'816.6
2017-May-25 05:30N 55°29' E 014°56'815.8
2017-May-25 05:00N 55°25' E 014°45'1015.4
2017-May-25 04:23N 55°18' E 014°32'615.5
2017-May-25 03:59N 55°13' E 014°25'815.5
2017-May-25 03:27N 55°07' E 014°16'715.4
2017-May-25 03:00N 55°02' E 014°08'916.0
2017-May-25 02:25N 54°58' E 013°53'816.5
2017-May-25 01:55N 54°55' E 013°39'1815.9
2017-May-25 00:47N 54°49' E 013°10'416.0
2017-May-25 00:30N 54°48' E 013°02'815.7
2017-May-25 00:00N 54°45' E 012°50'1615.9
2017-May-24 23:02N 54°37' E 012°27'015.9
2017-May-24 23:00N 54°37' E 012°26'815.7
2017-May-24 22:30N 54°31' E 012°17'815.5
2017-May-24 22:00N 54°25' E 012°09'3516.8
2017-May-24 19:55N 54°35' E 011°11'717.0
2017-May-24 19:30N 54°39' E 011°01'815.2
2017-May-24 19:00N 54°44' E 010°52'816.9
2017-May-24 18:30N 54°52' E 010°53'816.4
2017-May-24 18:00N 54°59' E 011°00'917.7
2017-May-24 17:29N 55°09' E 011°03'8415.1
2017-May-24 11:52N 56°31' E 011°37'616.1
2017-May-24 11:28N 56°36' E 011°43'816.2
2017-May-24 10:58N 56°44' E 011°50'1115.7
2017-May-24 10:15N 56°54' E 011°45'1416.1
2017-May-24 09:22N 57°08' E 011°35'916.8
2017-May-24 08:49N 57°16' E 011°29'617.2
2017-May-24 08:29N 57°22' E 011°26'816.4
2017-May-24 08:00N 57°29' E 011°19'816.0
2017-May-24 07:30N 57°35' E 011°09'816.1
2017-May-24 07:00N 57°41' E 010°58'816.1
2017-May-24 06:30N 57°46' E 010°47'916.6
2017-May-24 05:59N 57°48' E 010°32'817.2
2017-May-24 05:30N 57°47' E 010°16'1116.9
2017-May-24 04:53N 57°45' E 009°56'916.8
2017-May-24 04:21N 57°43' E 009°40'2116.9
2017-May-24 03:05N 57°33' E 009°05'11619.8
2017-May-23 21:14N 55°49' E 007°30'28 9.0
2017-May-23 18:05N 55°21' E 007°26'116.0
2017-May-23 18:00N 55°20' E 007°26'815.8
2017-May-23 17:30N 55°12' E 007°27'815.5
2017-May-23 17:00N 55°04' E 007°28'815.4
2017-May-23 16:30N 54°57' E 007°28'815.3
2017-May-23 16:01N 54°49' E 007°28'815.6
2017-May-23 15:30N 54°41' E 007°28'1416.0
2017-May-23 14:37N 54°27' E 007°29'4314.3
2017-May-23 11:37N 53°48' E 008°01'716.3
2017-May-23 11:11N 53°41' E 008°05'7 1.2
2017-May-23 05:39N 53°35' E 008°09'0 0.0
2017-May-23 05:27N 53°35' E 008°09'0 0.0
2017-May-23 04:09N 53°35' E 008°09'0 0.0
2017-May-23 03:57N 53°35' E 008°09'0 0.0
2017-May-23 03:03N 53°35' E 008°09'0 0.0
2017-May-23 01:33N 53°35' E 008°09'0 0.0
2017-May-23 01:21N 53°35' E 008°09'0 0.0
2017-May-22 19:43N 53°35' E 008°09'0 1.0
2017-May-22 19:29N 53°35' E 008°10'4 8.7
2017-May-22 19:00N 53°39' E 008°07'613.1
2017-May-22 18:30N 53°45' E 008°03'5014.9
2017-May-22 15:09N 54°30' E 007°24'318.1
2017-May-22 15:00N 54°33' E 007°24'1818.1
2017-May-22 14:00N 54°50' E 007°21'917.9
2017-May-22 13:30N 54°59' E 007°20'917.7
2017-May-22 13:00N 55°08' E 007°19'917.8
2017-May-22 12:30N 55°17' E 007°17'917.7
2017-May-22 12:00N 55°26' E 007°16'917.9
2017-May-22 11:30N 55°35' E 007°15'917.9
2017-May-22 11:01N 55°43' E 007°14'918.2
2017-May-22 10:30N 55°53' E 007°12'14 5.5
2017-May-22 07:58N 56°07' E 007°08'613.3
2017-May-22 07:30N 56°01' E 007°03'916.1
2017-May-22 06:58N 55°54' E 006°55'716.1
2017-May-22 06:30N 55°47' E 006°49'1016.0
2017-May-22 05:53N 55°38' E 006°41'616.0
2017-May-22 05:30N 55°33' E 006°35'816.1
2017-May-22 04:58N 55°26' E 006°28'13716.8
2017-May-21 20:48N 53°24' E 004°40'516.5
2017-May-21 20:30N 53°19' E 004°37'816.8
2017-May-21 20:00N 53°11' E 004°31'916.6
2017-May-21 19:29N 53°04' E 004°25'816.4
2017-May-21 19:00N 52°57' E 004°19'816.5
2017-May-21 18:30N 52°49' E 004°12'816.4
2017-May-21 18:00N 52°42' E 004°06'816.3
2017-May-21 17:30N 52°35' E 003°60'816.2
2017-May-21 17:00N 52°28' E 003°54'816.1
2017-May-21 16:30N 52°20' E 003°52'816.4
2017-May-21 16:00N 52°12' E 003°53'815.3
2017-May-21 15:30N 52°04' E 003°55'5 9.3
2017-May-21 15:00N 52°01' E 003°60'3 3.1
2017-May-21 13:56N 51°57' E 004°02'0 0.0
2017-May-21 13:22N 51°57' E 004°02'0 0.0
2017-May-21 12:59N 51°57' E 004°02'0 0.0
2017-May-21 12:29N 51°57' E 004°02'0 0.0
2017-May-21 11:59N 51°57' E 004°02'0 0.0
2017-May-21 11:26N 51°57' E 004°02'0 0.0
2017-May-21 10:59N 51°57' E 004°02'0 0.0
2017-May-21 10:29N 51°57' E 004°02'0 0.0
2017-May-21 09:50N 51°57' E 004°02'0 0.0
2017-May-21 09:25N 51°57' E 004°02'0 0.0
2017-May-21 08:55N 51°57' E 004°02'0 0.0
2017-May-21 08:20N 51°57' E 004°02'0 0.0
2017-May-21 07:47N 51°57' E 004°02'0 0.0
2017-May-21 07:29N 51°57' E 004°02'0 0.0
2017-May-21 06:32N 51°57' E 004°02'0 0.0
2017-May-21 06:26N 51°57' E 004°02'0 0.0
2017-May-21 05:56N 51°57' E 004°02'0 0.0
2017-May-21 05:20N 51°57' E 004°02'0 0.0
2017-May-21 04:59N 51°57' E 004°02'0 0.0
2017-May-21 04:23N 51°57' E 004°02'0 0.0
2017-May-21 03:59N 51°57' E 004°02'0 0.0
2017-May-21 03:26N 51°57' E 004°02'0 0.0
2017-May-21 02:59N 51°57' E 004°02'0 0.0
2017-May-21 02:29N 51°57' E 004°02'1 2.3
2017-May-21 02:00N 51°58' E 004°04'2 4.6
2017-May-21 01:30N 51°58' E 004°00'0 0.3
2017-May-21 00:33N 51°57' E 004°00'0 0.0
2017-May-21 00:18N 51°57' E 004°00'0 0.0
2017-May-21 00:00N 51°57' E 004°00'0 0.0
2017-May-20 23:30N 51°57' E 004°00'0 0.0
2017-May-20 22:48N 51°57' E 004°00'0 0.0
2017-May-20 22:27N 51°57' E 004°00'0 0.0
2017-May-20 21:42N 51°57' E 004°00'0 0.0
2017-May-20 20:39N 51°57' E 004°00'0 0.0
2017-May-20 20:21N 51°57' E 004°00'0 0.0
2017-May-20 19:45N 51°57' E 004°00'0 0.0
2017-May-20 19:27N 51°57' E 004°00'0 0.0
2017-May-20 19:00N 51°57' E 004°00'0 0.0
2017-May-20 18:30N 51°57' E 004°00'0 0.0
2017-May-20 17:57N 51°57' E 004°00'0 0.0
2017-May-20 17:27N 51°57' E 004°00'0 0.0
2017-May-20 16:57N 51°57' E 004°00'0 0.0
2017-May-20 16:27N 51°57' E 004°00'0 0.0
2017-May-20 15:27N 51°57' E 004°00'0 0.0
2017-May-20 15:00N 51°57' E 004°00'0 0.0
2017-May-20 14:00N 51°57' E 004°00'0 0.0
2017-May-20 13:24N 51°57' E 004°00'0 0.0
2017-May-20 13:00N 51°57' E 004°00'0 0.0
2017-May-20 12:18N 51°57' E 004°00'0 0.0
2017-May-20 12:00N 51°57' E 004°00'0 0.0
2017-May-20 11:30N 51°57' E 004°00'0 0.0
2017-May-20 10:57N 51°57' E 004°00'0 0.0
2017-May-20 10:30N 51°57' E 004°00'0 0.0
2017-May-20 09:48N 51°57' E 004°00'0 0.0
2017-May-20 08:21N 51°57' E 004°00'0 0.0
2017-May-20 07:36N 51°57' E 004°00'0 0.0
2017-May-20 07:24N 51°57' E 004°00'0 0.0
2017-May-20 06:51N 51°57' E 004°00'0 0.0
2017-May-20 06:24N 51°57' E 004°00'0 0.0
2017-May-20 06:01N 51°57' E 004°00'0 0.0
2017-May-20 05:31N 51°57' E 004°00'0 0.0
2017-May-20 05:00N 51°57' E 004°00'0 0.0
2017-May-20 04:31N 51°57' E 004°00'1 1.9
2017-May-20 04:00N 51°58' E 003°60'3 6.3
2017-May-20 03:30N 51°58' E 004°05'4 7.8
2017-May-20 03:00N 51°60' E 003°60'712.7
2017-May-20 02:29N 52°02' E 003°49'511.4
2017-May-20 02:00N 52°07' E 003°46'715.0
2017-May-20 01:30N 52°14' E 003°46'814.9
2017-May-20 00:59N 52°22' E 003°48'815.6
2017-May-20 00:29N 52°29' E 003°51'816.2
2017-May-20 00:00N 52°37' E 003°53'816.6
2017-May-19 23:30N 52°45' E 003°56'916.3
2017-May-19 22:56N 52°54' E 003°59'815.6
2017-May-19 22:25N 53°00' E 004°08'35116.0
2017-May-19 00:26N 57°49' E 010°00'716.7
2017-May-19 00:00N 57°49' E 010°14'816.5
2017-May-18 23:30N 57°49' E 010°29'815.8
2017-May-18 23:00N 57°48' E 010°44'816.0
2017-May-18 22:30N 57°44' E 010°56'917.2
2017-May-18 22:00N 57°37' E 011°07'917.3
2017-May-18 21:30N 57°31' E 011°19'916.9
2017-May-18 20:59N 57°25' E 011°29'817.6
2017-May-18 20:30N 57°17' E 011°34'1117.3
2017-May-18 19:52N 57°06' E 011°41'917.5
2017-May-18 19:19N 56°57' E 011°47'11115.8
2017-May-18 12:18N 55°09' E 011°03'717.3
2017-May-18 11:53N 55°02' E 011°02'616.3
2017-May-18 11:30N 54°56' E 010°57'816.4
2017-May-18 11:00N 54°49' E 010°52'815.4
2017-May-18 10:30N 54°41' E 010°56'918.0
2017-May-18 10:00N 54°37' E 011°09'1019.1
2017-May-18 09:30N 54°32' E 011°24'919.0
2017-May-18 09:01N 54°28' E 011°39'918.2
2017-May-18 08:31N 54°26' E 011°54'918.2
2017-May-18 08:00N 54°27' E 012°10'4617.1
2017-May-18 05:19N 54°53' E 013°14'718.3
2017-May-18 04:58N 54°56' E 013°25'918.6
2017-May-18 04:30N 54°59' E 013°39'1018.3
2017-May-18 03:57N 55°03' E 013°55'818.2
2017-May-18 03:30N 55°07' E 014°08'917.9
2017-May-18 03:00N 55°13' E 014°18'918.3
2017-May-18 02:29N 55°21' E 014°28'1118.4
2017-May-18 01:54N 55°29' E 014°42'818.0
2017-May-18 01:28N 55°32' E 014°54'818.2
2017-May-18 01:01N 55°36' E 015°07'918.4
2017-May-18 00:30N 55°41' E 015°21'918.6
2017-May-18 00:00N 55°45' E 015°35'918.4
2017-May-17 23:31N 55°50' E 015°49'918.2
2017-May-17 23:01N 55°54' E 016°03'918.3
2017-May-17 22:31N 55°59' E 016°18'918.3
2017-May-17 22:00N 56°03' E 016°32'918.1
2017-May-17 21:31N 56°08' E 016°45'918.2
2017-May-17 21:00N 56°14' E 016°59'918.2
2017-May-17 20:30N 56°20' E 017°12'  

Dump ship's entire track history